Time;durP1;ratioP1;P1;durP2;ratioP2;P2;SDS_P1;SDS_P2;PMS_P1;PMS_P2;Temp;Humidity;BMP_temperature;BMP_pressure;BME280_temperature;BME280_humidity;BME280_pressure;Samples;Min_cycle;Max_cycle;Signal;HPM_P1;HPM_P2
2021/12/08 00:05:44;;;;;;;10.93;4.47;;;;;;;2.86;95.21;98883.19;21020940;28;20117;-75
2021/12/08 00:15:52;;;;;;;8.88;3.88;;;;;;;2.66;95.44;98890.25;21020312;28;20111;-75
2021/12/08 00:25:58;;;;;;;8.80;3.67;;;;;;;2.64;95.14;98892.88;21020829;28;20409;-75
2021/12/08 00:36:01;;;;;;;10.13;4.30;;;;;;;2.52;96.46;98873.13;21019439;28;20049;-77
2021/12/08 00:46:03;;;;;;;9.70;4.72;;;;;;;2.48;97.39;98876.59;21019434;28;20056;-76
2021/12/08 00:56:05;;;;;;;11.27;4.60;;;;;;;2.50;98.41;98894.72;21016046;28;20114;-74
2021/12/08 01:06:06;;;;;;;9.80;4.25;;;;;;;2.47;98.50;98911.06;21016897;28;20073;-75
2021/12/08 01:16:08;;;;;;;13.25;5.10;;;;;;;2.52;98.54;98927.38;21016804;28;20082;-76
2021/12/08 01:26:10;;;;;;;11.20;5.32;;;;;;;2.44;99.15;98941.22;21017029;28;20050;-75
2021/12/08 01:36:12;;;;;;;13.38;7.57;;;;;;;2.55;99.22;98916.19;21016005;28;20059;-75
2021/12/08 01:46:14;;;;;;;15.95;6.78;;;;;;;2.53;99.17;98892.06;21013215;28;20263;-75
2021/12/08 01:56:18;;;;;;;12.65;6.20;;;;;;;2.44;100.00;98871.47;21016077;28;20096;-76
2021/12/08 02:06:21;;;;;;;11.07;6.05;;;;;;;2.55;100.00;98856.78;21026380;28;20510;-76
2021/12/08 02:16:23;;;;;;;12.02;6.60;;;;;;;2.54;100.00;98870.56;21031885;28;20044;-73
2021/12/08 02:26:26;;;;;;;12.15;6.35;;;;;;;2.46;100.00;98852.53;21029868;28;20043;-73
2021/12/08 02:47:11;;;;;;;14.23;6.97;;;;;;;2.54;100.00;98855.06;21029462;28;20070;-75
2021/12/08 02:57:15;;;;;;;13.93;7.53;;;;;;;2.58;100.00;98848.97;21028604;28;20055;-76
2021/12/08 03:07:17;;;;;;;11.23;6.33;;;;;;;2.56;100.00;98848.16;21026840;28;20052;-74
2021/12/08 03:17:18;;;;;;;11.57;7.15;;;;;;;2.51;100.00;98848.19;21025303;28;20110;-77
2021/12/08 03:27:27;;;;;;;16.35;7.15;;;;;;;2.49;100.00;98846.47;21025766;28;20102;-76
2021/12/08 03:37:33;;;;;;;14.68;7.72;;;;;;;2.37;100.00;98867.25;21024589;28;20048;-75
2021/12/08 03:47:38;;;;;;;14.32;7.75;;;;;;;2.44;100.00;98874.06;21024368;28;20054;-75
2021/12/08 03:57:40;;;;;;;17.92;9.43;;;;;;;2.59;100.00;98873.97;21023655;28;20053;-74
2021/12/08 04:07:45;;;;;;;26.73;14.90;;;;;;;2.67;100.00;98874.75;21022580;28;20052;-73
2021/12/08 04:17:50;;;;;;;;;;;;;;;2.75;100.00;98885.88;21039761;28;20056;-74
2021/12/08 04:27:54;;;;;;;14.70;8.00;;;;;;;2.85;100.00;98878.03;21022338;28;19920;-74
2021/12/08 04:38:00;;;;;;;16.20;7.53;;;;;;;2.90;100.00;98863.34;21020831;28;20077;-75
2021/12/08 04:48:19;;;;;;;18.98;8.40;;;;;;;2.89;100.00;98874.56;21020673;28;20044;-73
2021/12/08 05:08:41;;;;;;;14.32;8.30;;;;;;;2.94;100.00;98849.53;21019593;28;20048;-73
2021/12/08 05:18:48;;;;;;;18.65;8.35;;;;;;;2.94;100.00;98857.28;21019241;28;20135;-74
2021/12/08 05:28:52;;;;;;;13.93;8.38;;;;;;;2.91;100.00;98870.22;21017509;28;20124;-75
2021/12/08 05:38:55;;;;;;;21.43;11.10;;;;;;;2.80;100.00;98858.25;21016511;28;20052;-74
2021/12/08 05:48:58;;;;;;;19.70;9.63;;;;;;;2.74;100.00;98862.63;21008733;28;20473;-75
2021/12/08 05:59:03;;;;;;;20.33;11.32;;;;;;;2.78;100.00;98841.94;21016854;28;20049;-75
2021/12/08 06:09:07;;;;;;;;;;;;;;;2.85;100.00;98862.53;21016048;28;20041;-75
2021/12/08 06:19:10;;;;;;;25.13;13.68;;;;;;;2.85;100.00;98870.28;21015381;28;19931;-75
2021/12/08 06:29:15;;;;;;;17.90;11.63;;;;;;;2.86;100.00;98839.25;21014901;28;20277;-75
2021/12/08 06:39:20;;;;;;;;;;;;;;;2.88;100.00;98859.94;21014577;28;20102;-75
2021/12/08 06:49:23;;;;;;;24.10;12.17;;;;;;;2.90;100.00;98874.53;21017608;28;19973;-75
2021/12/08 06:59:35;;;;;;;22.15;13.05;;;;;;;2.96;100.00;98889.13;21024985;28;20404;-75
2021/12/08 07:09:47;;;;;;;27.98;16.75;;;;;;;2.93;100.00;98895.19;21026967;28;20459;-75
2021/12/08 07:20:03;;;;;;;27.33;16.00;;;;;;;2.88;100.00;98893.53;21026181;28;20048;-73
2021/12/08 07:30:19;;;;;;;34.45;20.98;;;;;;;2.86;100.00;98859.94;21023108;28;20110;-73
2021/12/08 07:40:25;;;;;;;33.55;20.77;;;;;;;2.79;100.00;98869.47;21024342;28;20053;-71
2021/12/08 07:50:33;;;;;;;57.13;29.70;;;;;;;2.83;100.00;98878.94;21023727;28;20072;-73
2021/12/08 08:00:43;;;;;;;33.00;19.42;;;;;;;2.83;100.00;98863.41;21022932;28;20496;-73
2021/12/08 08:10:51;;;;;;;33.15;20.50;;;;;;;2.95;100.00;98880.53;21058213;28;20074;-73
2021/12/08 08:20:58;;;;;;;33.55;19.13;;;;;;;3.13;100.00;98886.41;21047680;28;20044;-73
2021/12/08 08:31:12;;;;;;;39.35;21.45;;;;;;;3.22;100.00;98902.69;21052053;28;20729;-73
2021/12/08 08:41:31;;;;;;;29.45;17.83;;;;;;;3.36;100.00;98893.94;21052956;28;20052;-73
2021/12/08 08:52:00;;;;;;;39.35;21.65;;;;;;;3.51;100.00;98878.22;21052660;28;20044;-74
2021/12/08 09:02:07;;;;;;;29.30;17.88;;;;;;;3.50;100.00;98910.16;21050128;28;20442;-73
2021/12/08 09:12:23;;;;;;;23.92;14.93;;;;;;;3.72;100.00;98934.88;21028152;28;20056;-74
2021/12/08 09:22:39;;;;;;;24.08;14.82;;;;;;;3.91;100.00;98952.81;21011301;28;20104;-74
2021/12/08 09:32:48;;;;;;;34.05;20.40;;;;;;;3.95;100.00;98955.34;21009541;28;20048;-74
2021/12/08 09:42:55;;;;;;;30.27;18.63;;;;;;;4.09;100.00;98931.84;21010449;28;20055;-74
2021/12/08 09:52:58;;;;;;;25.23;16.02;;;;;;;4.13;100.00;98935.28;21009444;28;20055;-74
2021/12/08 10:03:00;;;;;;;28.20;16.23;;;;;;;4.22;100.00;98922.19;21009296;28;20079;-74
2021/12/08 10:13:04;;;;;;;26.52;15.63;;;;;;;4.26;100.00;98916.91;21011723;28;20056;-74
2021/12/08 10:23:13;;;;;;;26.33;15.30;;;;;;;4.28;100.00;98912.59;21012568;28;20449;-74
2021/12/08 10:34:03;;;;;;;26.92;15.65;;;;;;;4.38;100.00;98893.44;21023052;28;20048;-74
2021/12/08 10:44:04;;;;;;;26.95;17.33;;;;;;;4.48;100.00;98894.16;20979121;28;20069;-74
2021/12/08 10:54:30;;;;;;;27.23;15.85;;;;;;;4.54;100.00;98896.66;21022217;28;20108;-74
2021/12/08 11:04:32;;;;;;;;;;;;;;;4.72;100.00;98886.88;21021358;28;20063;-73
2021/12/08 11:14:45;;;;;;;35.10;17.83;;;;;;;4.79;100.00;98901.44;21020339;28;19938;-72
2021/12/08 11:24:56;;;;;;;32.88;19.10;;;;;;;4.84;100.00;98903.09;21018333;28;20098;-71
2021/12/08 11:35:01;;;;;;;30.58;18.05;;;;;;;4.95;100.00;98896.88;21016117;28;20048;-73
2021/12/08 11:45:12;;;;;;;30.27;16.90;;;;;;;5.02;100.00;98882.91;21017532;28;20040;-72
2021/12/08 11:55:18;;;;;;;29.70;17.52;;;;;;;5.17;100.00;98892.13;21017793;28;20052;-72
2021/12/08 12:05:22;;;;;;;29.48;16.92;;;;;;;5.18;100.00;98868.78;21017887;28;20052;-74
2021/12/08 12:15:24;;;;;;;30.70;17.93;;;;;;;5.23;100.00;98868.69;21022936;28;20048;-73
2021/12/08 12:26:04;;;;;;;27.02;15.98;;;;;;;5.33;100.00;98865.03;21019012;28;20489;-74
2021/12/08 12:36:17;;;;;;;26.25;15.45;;;;;;;5.31;100.00;98859.00;21010247;28;20056;-73
2021/12/08 12:46:19;;;;;;;31.58;18.23;;;;;;;5.28;100.00;98869.47;21014999;28;20060;-73
2021/12/08 12:56:29;;;;;;;27.38;16.98;;;;;;;5.28;100.00;98853.91;21017423;28;20342;-73
2021/12/08 13:06:42;;;;;;;30.40;18.02;;;;;;;5.31;100.00;98843.44;21015290;28;20048;-73
2021/12/08 13:16:43;;;;;;;28.50;17.40;;;;;;;5.36;100.00;98836.41;21022294;28;20048;-73
2021/12/08 13:26:48;;;;;;;28.73;17.05;;;;;;;5.30;100.00;98827.00;21034755;28;20097;-75
2021/12/08 13:36:49;;;;;;;31.42;18.65;;;;;;;5.36;100.00;98834.66;21014106;28;20082;-73
2021/12/08 13:46:54;;;;;;;30.98;17.08;;;;;;;5.24;100.00;98824.56;21014512;28;20101;-74
2021/12/08 13:56:57;;;;;;;28.67;17.67;;;;;;;5.24;100.00;98832.34;21020811;28;20059;-74
2021/12/08 14:06:59;;;;;;;30.67;18.70;;;;;;;5.23;100.00;98835.81;21032582;28;20047;-76
2021/12/08 14:17:00;;;;;;;34.83;19.88;;;;;;;5.17;100.00;98850.63;21027587;28;20137;-73
2021/12/08 14:27:08;;;;;;;38.10;20.65;;;;;;;5.14;100.00;98847.22;21030464;28;20040;-76
2021/12/08 14:37:14;;;;;;;32.08;18.70;;;;;;;5.10;100.00;98847.31;21037064;28;20056;-76
2021/12/08 14:47:19;;;;;;;32.38;19.55;;;;;;;5.03;100.00;98864.72;21028701;28;20126;-76
2021/12/08 14:57:27;;;;;;;28.38;17.88;;;;;;;5.00;100.00;98861.34;21013803;28;20147;-76
2021/12/08 15:07:31;;;;;;;31.92;18.40;;;;;;;4.96;100.00;98867.44;21039475;28;20048;-76
2021/12/08 15:17:32;;;;;;;29.60;18.45;;;;;;;4.91;100.00;98872.72;21015469;28;20106;-76
2021/12/08 15:27:38;;;;;;;33.33;19.08;;;;;;;4.81;100.00;98872.03;21026773;28;20105;-76
2021/12/08 15:37:51;;;;;;;34.72;19.58;;;;;;;4.80;100.00;98878.09;21022607;28;20052;-76
2021/12/08 15:47:54;;;;;;;32.15;19.40;;;;;;;4.74;100.00;98883.34;21019797;28;20390;-76
2021/12/08 15:58:08;;;;;;;40.00;23.98;;;;;;;4.73;100.00;98892.03;21026088;28;20542;-76
2021/12/08 16:08:10;;;;;;;37.30;24.95;;;;;;;4.67;100.00;98894.72;21019845;28;20049;-77
2021/12/08 16:18:13;;;;;;;39.13;22.65;;;;;;;4.64;100.00;98905.13;21022346;28;20048;-76
2021/12/08 16:28:14;;;;;;;37.15;21.48;;;;;;;4.54;100.00;98919.13;21018960;28;20496;-76
2021/12/08 16:38:16;;;;;;;50.85;28.85;;;;;;;4.47;100.00;98925.28;21019776;28;20089;-76
2021/12/08 16:48:25;;;;;;;38.17;22.65;;;;;;;4.44;100.00;98933.09;21033238;28;20094;-77
2021/12/08 16:58:27;;;;;;;30.63;17.77;;;;;;;4.36;100.00;98944.44;21013812;28;20125;-77
2021/12/08 17:08:30;;;;;;;30.05;17.17;;;;;;;4.36;100.00;98960.00;21020799;28;20055;-77
2021/12/08 17:18:36;;;;;;;31.95;17.15;;;;;;;4.37;100.00;98972.06;21023902;28;20046;-77
2021/12/08 17:28:39;;;;;;;34.40;19.17;;;;;;;4.41;100.00;98987.53;21016951;28;20044;-77
2021/12/08 17:38:41;;;;;;;32.00;17.55;;;;;;;4.39;100.00;98990.16;21014587;28;20500;-77
2021/12/08 17:48:43;;;;;;;38.15;21.00;;;;;;;4.36;100.00;99001.44;21013153;28;20048;-77
2021/12/08 17:58:47;;;;;;;37.20;21.02;;;;;;;4.29;100.00;99009.31;21013042;28;20060;-77
2021/12/08 18:09:01;;;;;;;40.93;21.97;;;;;;;4.24;100.00;99011.09;21012227;28;20084;-78
2021/12/08 18:19:04;;;;;;;49.65;29.45;;;;;;;4.20;100.00;99023.22;21014621;28;20462;-78
2021/12/08 18:29:09;;;;;;;38.28;21.33;;;;;;;4.17;100.00;99020.69;21012881;28;20080;-77
2021/12/08 18:39:13;;;;;;;37.70;21.93;;;;;;;4.22;100.00;99013.72;21008725;28;20052;-79
2021/12/08 18:49:16;;;;;;;40.33;23.70;;;;;;;4.18;100.00;99026.72;21029659;28;20048;-78
2021/12/08 18:59:19;;;;;;;40.25;22.58;;;;;;;4.11;100.00;99018.16;21026722;28;20113;-78
2021/12/08 19:09:20;;;;;;;34.63;21.13;;;;;;;4.02;100.00;99013.06;21023321;28;20093;-78
2021/12/08 19:19:23;;;;;;;54.97;30.10;;;;;;;4.02;100.00;99026.03;21026373;28;20110;-78
2021/12/08 19:29:25;;;;;;;51.05;28.90;;;;;;;3.96;100.00;99026.97;21023644;28;20048;-77
2021/12/08 19:39:26;;;;;;;49.85;26.67;;;;;;;3.90;100.00;99028.78;21022598;28;20158;-77
2021/12/08 19:49:29;;;;;;;56.00;28.05;;;;;;;3.88;100.00;99048.63;21020759;28;20360;-78
2021/12/08 19:59:31;;;;;;;57.05;30.65;;;;;;;3.94;100.00;99048.59;21021071;28;20490;-78
2021/12/08 20:09:32;;;;;;;55.85;30.33;;;;;;;3.93;100.00;99054.63;21018806;28;20101;-77
2021/12/08 20:19:34;;;;;;;54.72;28.35;;;;;;;3.98;100.00;99068.41;21023240;28;20097;-78
2021/12/08 20:29:36;;;;;;;49.35;24.75;;;;;;;3.99;100.00;99070.97;21027574;28;20451;-78
2021/12/08 20:39:38;;;;;;;43.65;23.95;;;;;;;4.05;100.00;99088.16;21030213;28;20110;-78
2021/12/08 20:49:58;;;;;;;64.95;35.83;;;;;;;4.09;100.00;99084.66;20972377;28;20064;-75
2021/12/08 21:00:05;;;;;;;45.97;26.13;;;;;;;4.07;100.00;99096.75;21019071;28;20064;-75
2021/12/08 21:10:10;;;;;;;48.10;25.52;;;;;;;4.07;100.00;99097.66;21016195;28;20050;-76
2021/12/08 21:20:16;;;;;;;44.25;24.02;;;;;;;4.13;100.00;99107.09;21016760;28;20119;-75
2021/12/08 21:30:19;;;;;;;36.95;21.45;;;;;;;3.99;100.00;99108.94;20972584;28;20048;-75
2021/12/08 21:40:23;;;;;;;39.60;21.77;;;;;;;3.94;100.00;99105.56;21013154;28;20055;-74
2021/12/08 21:50:25;;;;;;;38.78;20.83;;;;;;;3.74;100.00;99110.91;21012890;28;20049;-74
2021/12/08 22:00:29;;;;;;;40.65;22.30;;;;;;;3.78;100.00;99115.16;21013306;28;20125;-76
2021/12/08 22:10:32;;;;;;;48.95;26.48;;;;;;;3.58;100.00;99120.53;21017201;28;20073;-75
2021/12/08 22:20:34;;;;;;;45.63;25.00;;;;;;;3.55;100.00;99128.34;21019790;28;20053;-75
2021/12/08 22:30:36;;;;;;;45.53;25.40;;;;;;;3.43;100.00;99138.75;21029314;28;20067;-74
2021/12/08 22:40:38;;;;;;;47.33;26.35;;;;;;;3.35;100.00;99141.38;21029859;28;20056;-75
2021/12/08 22:50:42;;;;;;;42.25;23.42;;;;;;;3.30;100.00;99146.59;21028610;28;20528;-76
2021/12/08 23:00:55;;;;;;;;;;;;;;;3.19;100.00;99156.16;21029821;28;20041;-75
2021/12/08 23:11:00;;;;;;;35.15;16.85;;;;;;;3.17;100.00;99157.91;21133449;22;19921;-79
2021/12/08 23:21:02;;;;;;;27.75;14.43;;;;;;;3.11;100.00;99170.84;21043773;28;20116;-76
2021/12/08 23:31:05;;;;;;;33.10;13.57;;;;;;;3.05;100.00;99189.00;21032164;28;20063;-75
2021/12/08 23:41:11;;;;;;;26.60;11.02;;;;;;;2.90;100.00;99189.06;21033542;28;20101;-76
2021/12/08 23:51:12;;;;;;;26.75;11.45;;;;;;;2.78;100.00;99208.09;21033853;28;20045;-76
